Mohall, North Dakota
Current Conditions -  °F | °C
As of 7:33 PM on Sunday 23 Nov 2014 (Local Time) from KMIB Reporting Station
Light Snow Light Snow  
Wind Chill: -2°   Ceiling: 900
Heat Index: 16°   Visibility: 10mi
Dew Point: 10°   Wind: 22mph
Humidity: 79%   Direction: 330°NNW
Pressure: 29.72"   Gusts: 30mph
Location:  48.76°N, 101.51°W
Report Text: KMIB 240133Z AUTO 33019G26KT 10SM -SN FEW005 BKN009 OVC021 M09/M12 A2972 RMK AO2 UPB0118E0124SNE0118B0124 CIG 006V013 BKN V SCT
Loading
Personal Weather Stations






























Interactive Weather Map New forecast layout! Learn more

10-Day Weather Forecast

Advertisements
Track Severe Weather on mobile